Stolt Shearwater — ZCRD9 — position and weather

sailwx.info

Track history (hours):
 
Tides and Currents Weather Stations Pressure Air Temp Water Temp Dewpoint Dewpoint Depression Visibility Wind Speed Wind Dir Waves Ship Positions

Stolt Shearwater

Last reported at 2015-Apr-19 07:32 UTC. Time now 2015-Apr-19 07:57 UTC.
Position N 53°17' W 002°52'.

Length 96 m; draft 5.9 m.

Type: Ship (hazmat cat B). MMSI: 319402000.

Date/timePositionNaut miles runAvg speedWind from/ knotsBaromVisibWave heightAir tempDewpointWater temp
2015-Apr-19 07:32N 53°17' W 002°52'0 0.0
2015-Apr-19 06:32N 53°17' W 002°52'0 0.0
2015-Apr-19 05:32N 53°17' W 002°52'0 0.0
2015-Apr-19 04:29N 53°17' W 002°52'0 0.0
2015-Apr-19 03:32N 53°17' W 002°52'0 0.0
2015-Apr-19 02:33N 53°17' W 002°52'0 0.0
2015-Apr-19 01:33N 53°17' W 002°52'3 2.8
2015-Apr-19 00:33N 53°19' W 002°56'3 2.7
2015-Apr-18 23:33N 53°21' W 002°58'1010.0
2015-Apr-18 22:33N 53°30' W 003°06'9 8.8
2015-Apr-18 21:33N 53°31' W 003°21'4 3.8
2015-Apr-18 20:31N 53°28' W 003°26'0 0.0
2015-Apr-18 19:31N 53°28' W 003°26'0 0.0
2015-Apr-18 18:33N 53°28' W 003°26'0 0.1
2015-Apr-18 17:34N 53°28' W 003°26'0 0.0
2015-Apr-18 16:33N 53°29' W 003°26'0 0.1
2015-Apr-18 15:33N 53°28' W 003°26'8 8.0
2015-Apr-18 14:33N 53°31' W 003°39'9 8.9
2015-Apr-18 13:33N 53°31' W 003°54'9 8.7
2015-Apr-18 12:32N 53°30' W 004°09'206 6.9
2015-Apr-17 06:34N 50°06' W 003°29'10 9.8
2015-Apr-17 05:33N 50°08' W 003°15'10 9.5
2015-Apr-17 04:33N 50°10' W 002°60'10 9.9
2015-Apr-17 03:33N 50°11' W 002°45'1511.4
2015-Apr-17 02:13N 50°15' W 002°21'4113.9
2015-Apr-16 23:18N 50°23' W 001°19'3612.1
2015-Apr-16 20:21N 50°30' W 000°24'18 9.6
2015-Apr-16 18:31N 50°33' E 000°03'10 9.9
2015-Apr-16 17:33N 50°35' E 000°18'1111.1
2015-Apr-16 16:33N 50°38' E 000°34'1312.6
2015-Apr-16 15:33N 50°45' E 000°50'1312.6
2015-Apr-16 14:33N 50°53' E 001°07'1211.9
2015-Apr-16 13:33N 51°00' E 001°21'1010.4
2015-Apr-16 12:33N 51°07' E 001°34'9 8.7
2015-Apr-16 11:33N 51°13' E 001°44'9 8.6
2015-Apr-16 10:34N 51°20' E 001°53'9 8.2
2015-Apr-16 09:30N 51°24' E 002°05'8 8.9
2015-Apr-16 08:33N 51°21' E 002°17'1110.8
2015-Apr-16 07:33N 51°23' E 002°34'1111.0
2015-Apr-16 06:33N 51°22' E 002°52'1412.0
2015-Apr-16 05:21N 51°25' E 003°14'1012.3
2015-Apr-16 04:34N 51°25' E 003°30'1010.1
2015-Apr-16 03:34N 51°22' E 003°45'1110.8
2015-Apr-16 02:33N 51°25' E 004°02'9 9.4
2015-Apr-16 01:34N 51°21' E 004°15'5 5.3
2015-Apr-16 00:33N 51°16' E 004°17'1 0.6
2015-Apr-15 23:22N 51°16' E 004°15'0 0.2
2015-Apr-15 22:28N 51°16' E 004°15'0 0.0
2015-Apr-15 21:16N 51°16' E 004°15'0 0.0
2015-Apr-15 20:22N 51°16' E 004°15'0 0.0
2015-Apr-15 19:28N 51°16' E 004°15'0 0.0
2015-Apr-15 18:22N 51°16' E 004°15'0 0.0
2015-Apr-15 17:22N 51°16' E 004°15'0 0.0
2015-Apr-15 16:22N 51°16' E 004°15'0 0.0
2015-Apr-15 15:28N 51°16' E 004°15'0 0.0
2015-Apr-15 14:19N 51°16' E 004°15'0 0.0
2015-Apr-15 13:04N 51°16' E 004°15'0 0.0
2015-Apr-15 12:28N 51°16' E 004°15'0 0.0
2015-Apr-15 11:22N 51°16' E 004°15'0 0.0
2015-Apr-15 10:16N 51°16' E 004°15'0 0.0
2015-Apr-15 09:28N 51°16' E 004°15'0 0.0
2015-Apr-15 08:28N 51°16' E 004°15'0 0.0
2015-Apr-15 07:31N 51°16' E 004°15'0 0.0
2015-Apr-15 06:22N 51°16' E 004°15'0 0.0
2015-Apr-15 05:28N 51°16' E 004°15'0 0.0
2015-Apr-15 04:16N 51°16' E 004°15'0 0.0
2015-Apr-15 03:22N 51°16' E 004°15'0 0.0
2015-Apr-15 02:31N 51°16' E 004°15'0 0.0
2015-Apr-15 01:31N 51°16' E 004°15'0 0.0
2015-Apr-15 00:31N 51°16' E 004°15'0 0.0
2015-Apr-14 23:28N 51°16' E 004°15'0 0.0
2015-Apr-14 22:31N 51°16' E 004°15'0 0.0
2015-Apr-14 21:28N 51°16' E 004°15'0 0.0
2015-Apr-14 20:22N 51°16' E 004°15'0 0.0
2015-Apr-14 19:31N 51°16' E 004°15'0 0.0
2015-Apr-14 18:31N 51°16' E 004°15'0 0.0
2015-Apr-14 17:28N 51°16' E 004°15'0 0.0
2015-Apr-14 16:34N 51°16' E 004°15'1 0.9
2015-Apr-14 15:33N 51°16' E 004°17'2 2.2
2015-Apr-14 14:34N 51°17' E 004°20'0 0.0
2015-Apr-14 13:34N 51°17' E 004°20'2 1.6
2015-Apr-14 12:33N 51°16' E 004°22'0 0.0
2015-Apr-14 11:30N 51°16' E 004°22'0 0.0
2015-Apr-14 10:30N 51°16' E 004°22'0 0.0
2015-Apr-14 09:30N 51°16' E 004°22'0 0.0
2015-Apr-14 08:33N 51°16' E 004°22'0 0.0
2015-Apr-14 07:30N 51°16' E 004°22'0 0.0
2015-Apr-14 06:33N 51°16' E 004°22'0 0.0
2015-Apr-14 05:33N 51°16' E 004°22'0 0.0
2015-Apr-14 04:33N 51°16' E 004°22'0 0.0
2015-Apr-14 03:30N 51°16' E 004°22'0 0.0
2015-Apr-14 02:30N 51°16' E 004°22'0 0.0
2015-Apr-14 01:33N 51°16' E 004°22'0 0.0
2015-Apr-14 00:33N 51°16' E 004°22'0 0.0
2015-Apr-13 23:33N 51°16' E 004°22'0 0.0
2015-Apr-13 22:30N 51°16' E 004°22'0 0.0
2015-Apr-13 21:30N 51°16' E 004°22'0 0.0
2015-Apr-13 20:33N 51°16' E 004°22'0 0.0
2015-Apr-13 19:24N 51°16' E 004°22'0 0.0
2015-Apr-13 18:33N 51°16' E 004°22'1 0.5
2015-Apr-13 17:33N 51°16' E 004°21'2 2.1
2015-Apr-13 16:33N 51°18' E 004°20'0 0.0
2015-Apr-13 15:33N 51°18' E 004°20'0 0.0
2015-Apr-13 14:30N 51°18' E 004°20'0 0.0
2015-Apr-13 13:18N 51°18' E 004°20'0 0.0
2015-Apr-13 11:33N 51°18' E 004°20'0 0.0
2015-Apr-13 10:27N 51°18' E 004°20'0 0.0
2015-Apr-13 09:21N 51°18' E 004°20'0 0.0
2015-Apr-13 07:15N 51°18' E 004°20'0 0.0
2015-Apr-13 06:27N 51°18' E 004°20'0 0.0
2015-Apr-13 03:12N 51°18' E 004°20'0 0.0
2015-Apr-13 01:12N 51°18' E 004°20'0 0.0
2015-Apr-13 00:30N 51°18' E 004°20'0 0.0
2015-Apr-12 22:30N 51°18' E 004°20'0 0.0
2015-Apr-12 21:30N 51°18' E 004°20'0 0.0
2015-Apr-12 20:24N 51°18' E 004°20'0 0.0
2015-Apr-12 19:30N 51°18' E 004°20'0 0.0
2015-Apr-12 18:21N 51°18' E 004°20'0 0.0
2015-Apr-12 17:33N 51°18' E 004°20'0 0.0
2015-Apr-12 16:30N 51°18' E 004°20'0 0.0
2015-Apr-12 15:33N 51°18' E 004°20'3 3.4
2015-Apr-12 14:33N 51°21' E 004°17'2 2.2
2015-Apr-12 13:33N 51°22' E 004°14'7 6.8
2015-Apr-12 12:33N 51°22' E 004°03'4 4.1
2015-Apr-12 11:33N 51°23' E 003°57'7 7.2
2015-Apr-12 10:33N 51°22' E 003°45'7 6.8
2015-Apr-12 09:34N 51°26' E 003°36'8 8.3
2015-Apr-12 08:33N 51°24' E 003°23'1110.6
2015-Apr-12 07:32N 51°24' E 003°06'1111.4
2015-Apr-12 06:34N 51°22' E 002°48'6 6.2
2015-Apr-12 05:33N 51°22' E 002°38'7 6.8
2015-Apr-12 04:33N 51°21' E 002°28'7 6.9
2015-Apr-12 03:34N 51°18' E 002°18'10 9.9
2015-Apr-12 02:33N 51°13' E 002°05'10 9.8
2015-Apr-12 01:33N 51°08' E 001°51'9 9.2
2015-Apr-12 00:33N 51°02' E 001°40'9 8.8
2015-Apr-11 23:33N 50°55' E 001°31'9 8.8
2015-Apr-11 22:33N 50°47' E 001°25'22610.7
2015-Apr-11 01:33N 49°24' W 004°02'6811.3
2015-Apr-10 19:33N 48°50' W 005°32'  
Track history (hours):
 
Tides and Currents Weather Stations Pressure Air Temp Water Temp Dewpoint Dewpoint Depression Visibility Wind Speed Wind Dir Waves Ship Positions

Stolt Shearwater

Last reported at 2015-Apr-19 07:32 UTC. Time now 2015-Apr-19 07:57 UTC.
Position N 53°17' W 002°52'.

Length 96 m; draft 5.9 m.

Type: Ship (hazmat cat B). MMSI: 319402000.

Date/timePositionNaut miles runAvg speedWind from/ knotsBaromVisibWave heightAir tempDewpointWater temp
2015-Apr-19 07:32N 53°17' W 002°52'0 0.0
2015-Apr-19 06:32N 53°17' W 002°52'0 0.0
2015-Apr-19 05:32N 53°17' W 002°52'0 0.0
2015-Apr-19 04:29N 53°17' W 002°52'0 0.0
2015-Apr-19 03:32N 53°17' W 002°52'0 0.0
2015-Apr-19 02:33N 53°17' W 002°52'0 0.0
2015-Apr-19 01:33N 53°17' W 002°52'3 2.8
2015-Apr-19 00:33N 53°19' W 002°56'3 2.7
2015-Apr-18 23:33N 53°21' W 002°58'1010.0
2015-Apr-18 22:33N 53°30' W 003°06'9 8.8
2015-Apr-18 21:33N 53°31' W 003°21'4 3.8
2015-Apr-18 20:31N 53°28' W 003°26'0 0.0
2015-Apr-18 19:31N 53°28' W 003°26'0 0.0
2015-Apr-18 18:33N 53°28' W 003°26'0 0.1
2015-Apr-18 17:34N 53°28' W 003°26'0 0.0
2015-Apr-18 16:33N 53°29' W 003°26'0 0.1
2015-Apr-18 15:33N 53°28' W 003°26'8 8.0
2015-Apr-18 14:33N 53°31' W 003°39'9 8.9
2015-Apr-18 13:33N 53°31' W 003°54'9 8.7
2015-Apr-18 12:32N 53°30' W 004°09'206 6.9
2015-Apr-17 06:34N 50°06' W 003°29'10 9.8
2015-Apr-17 05:33N 50°08' W 003°15'10 9.5
2015-Apr-17 04:33N 50°10' W 002°60'10 9.9
2015-Apr-17 03:33N 50°11' W 002°45'1511.4
2015-Apr-17 02:13N 50°15' W 002°21'4113.9
2015-Apr-16 23:18N 50°23' W 001°19'3612.1
2015-Apr-16 20:21N 50°30' W 000°24'18 9.6
2015-Apr-16 18:31N 50°33' E 000°03'10 9.9
2015-Apr-16 17:33N 50°35' E 000°18'1111.1
2015-Apr-16 16:33N 50°38' E 000°34'1312.6
2015-Apr-16 15:33N 50°45' E 000°50'1312.6
2015-Apr-16 14:33N 50°53' E 001°07'1211.9
2015-Apr-16 13:33N 51°00' E 001°21'1010.4
2015-Apr-16 12:33N 51°07' E 001°34'9 8.7
2015-Apr-16 11:33N 51°13' E 001°44'9 8.6
2015-Apr-16 10:34N 51°20' E 001°53'9 8.2
2015-Apr-16 09:30N 51°24' E 002°05'8 8.9
2015-Apr-16 08:33N 51°21' E 002°17'1110.8
2015-Apr-16 07:33N 51°23' E 002°34'1111.0
2015-Apr-16 06:33N 51°22' E 002°52'1412.0
2015-Apr-16 05:21N 51°25' E 003°14'1012.3
2015-Apr-16 04:34N 51°25' E 003°30'1010.1
2015-Apr-16 03:34N 51°22' E 003°45'1110.8
2015-Apr-16 02:33N 51°25' E 004°02'9 9.4
2015-Apr-16 01:34N 51°21' E 004°15'5 5.3
2015-Apr-16 00:33N 51°16' E 004°17'1 0.6
2015-Apr-15 23:22N 51°16' E 004°15'0 0.2
2015-Apr-15 22:28N 51°16' E 004°15'0 0.0
2015-Apr-15 21:16N 51°16' E 004°15'0 0.0
2015-Apr-15 20:22N 51°16' E 004°15'0 0.0
2015-Apr-15 19:28N 51°16' E 004°15'0 0.0
2015-Apr-15 18:22N 51°16' E 004°15'0 0.0
2015-Apr-15 17:22N 51°16' E 004°15'0 0.0
2015-Apr-15 16:22N 51°16' E 004°15'0 0.0
2015-Apr-15 15:28N 51°16' E 004°15'0 0.0
2015-Apr-15 14:19N 51°16' E 004°15'0 0.0
2015-Apr-15 13:04N 51°16' E 004°15'0 0.0
2015-Apr-15 12:28N 51°16' E 004°15'0 0.0
2015-Apr-15 11:22N 51°16' E 004°15'0 0.0
2015-Apr-15 10:16N 51°16' E 004°15'0 0.0
2015-Apr-15 09:28N 51°16' E 004°15'0 0.0
2015-Apr-15 08:28N 51°16' E 004°15'0 0.0
2015-Apr-15 07:31N 51°16' E 004°15'0 0.0
2015-Apr-15 06:22N 51°16' E 004°15'0 0.0
2015-Apr-15 05:28N 51°16' E 004°15'0 0.0
2015-Apr-15 04:16N 51°16' E 004°15'0 0.0
2015-Apr-15 03:22N 51°16' E 004°15'0 0.0
2015-Apr-15 02:31N 51°16' E 004°15'0 0.0
2015-Apr-15 01:31N 51°16' E 004°15'0 0.0
2015-Apr-15 00:31N 51°16' E 004°15'0 0.0
2015-Apr-14 23:28N 51°16' E 004°15'0 0.0
2015-Apr-14 22:31N 51°16' E 004°15'0 0.0
2015-Apr-14 21:28N 51°16' E 004°15'0 0.0
2015-Apr-14 20:22N 51°16' E 004°15'0 0.0
2015-Apr-14 19:31N 51°16' E 004°15'0 0.0
2015-Apr-14 18:31N 51°16' E 004°15'0 0.0
2015-Apr-14 17:28N 51°16' E 004°15'0 0.0
2015-Apr-14 16:34N 51°16' E 004°15'1 0.9
2015-Apr-14 15:33N 51°16' E 004°17'2 2.2
2015-Apr-14 14:34N 51°17' E 004°20'0 0.0
2015-Apr-14 13:34N 51°17' E 004°20'2 1.6
2015-Apr-14 12:33N 51°16' E 004°22'0 0.0
2015-Apr-14 11:30N 51°16' E 004°22'0 0.0
2015-Apr-14 10:30N 51°16' E 004°22'0 0.0
2015-Apr-14 09:30N 51°16' E 004°22'0 0.0
2015-Apr-14 08:33N 51°16' E 004°22'0 0.0
2015-Apr-14 07:30N 51°16' E 004°22'0 0.0
2015-Apr-14 06:33N 51°16' E 004°22'0 0.0
2015-Apr-14 05:33N 51°16' E 004°22'0 0.0
2015-Apr-14 04:33N 51°16' E 004°22'0 0.0
2015-Apr-14 03:30N 51°16' E 004°22'0 0.0
2015-Apr-14 02:30N 51°16' E 004°22'0 0.0
2015-Apr-14 01:33N 51°16' E 004°22'0 0.0
2015-Apr-14 00:33N 51°16' E 004°22'0 0.0
2015-Apr-13 23:33N 51°16' E 004°22'0 0.0
2015-Apr-13 22:30N 51°16' E 004°22'0 0.0
2015-Apr-13 21:30N 51°16' E 004°22'0 0.0
2015-Apr-13 20:33N 51°16' E 004°22'0 0.0
2015-Apr-13 19:24N 51°16' E 004°22'0 0.0
2015-Apr-13 18:33N 51°16' E 004°22'1 0.5
2015-Apr-13 17:33N 51°16' E 004°21'2 2.1
2015-Apr-13 16:33N 51°18' E 004°20'0 0.0
2015-Apr-13 15:33N 51°18' E 004°20'0 0.0
2015-Apr-13 14:30N 51°18' E 004°20'0 0.0
2015-Apr-13 13:18N 51°18' E 004°20'0 0.0
2015-Apr-13 11:33N 51°18' E 004°20'0 0.0
2015-Apr-13 10:27N 51°18' E 004°20'0 0.0
2015-Apr-13 09:21N 51°18' E 004°20'0 0.0
2015-Apr-13 07:15N 51°18' E 004°20'0 0.0
2015-Apr-13 06:27N 51°18' E 004°20'0 0.0
2015-Apr-13 03:12N 51°18' E 004°20'0 0.0
2015-Apr-13 01:12N 51°18' E 004°20'0 0.0
2015-Apr-13 00:30N 51°18' E 004°20'0 0.0
2015-Apr-12 22:30N 51°18' E 004°20'0 0.0
2015-Apr-12 21:30N 51°18' E 004°20'0 0.0
2015-Apr-12 20:24N 51°18' E 004°20'0 0.0
2015-Apr-12 19:30N 51°18' E 004°20'0 0.0
2015-Apr-12 18:21N 51°18' E 004°20'0 0.0
2015-Apr-12 17:33N 51°18' E 004°20'0 0.0
2015-Apr-12 16:30N 51°18' E 004°20'0 0.0
2015-Apr-12 15:33N 51°18' E 004°20'3 3.4
2015-Apr-12 14:33N 51°21' E 004°17'2 2.2
2015-Apr-12 13:33N 51°22' E 004°14'7 6.8
2015-Apr-12 12:33N 51°22' E 004°03'4 4.1
2015-Apr-12 11:33N 51°23' E 003°57'7 7.2
2015-Apr-12 10:33N 51°22' E 003°45'7 6.8
2015-Apr-12 09:34N 51°26' E 003°36'8 8.3
2015-Apr-12 08:33N 51°24' E 003°23'1110.6
2015-Apr-12 07:32N 51°24' E 003°06'1111.4
2015-Apr-12 06:34N 51°22' E 002°48'6 6.2
2015-Apr-12 05:33N 51°22' E 002°38'7 6.8
2015-Apr-12 04:33N 51°21' E 002°28'7 6.9
2015-Apr-12 03:34N 51°18' E 002°18'10 9.9
2015-Apr-12 02:33N 51°13' E 002°05'10 9.8
2015-Apr-12 01:33N 51°08' E 001°51'9 9.2
2015-Apr-12 00:33N 51°02' E 001°40'9 8.8
2015-Apr-11 23:33N 50°55' E 001°31'9 8.8
2015-Apr-11 22:33N 50°47' E 001°25'22610.7
2015-Apr-11 01:33N 49°24' W 004°02'6811.3
2015-Apr-10 19:33N 48°50' W 005°32'  

Dump ship's entire track history